Highlands Peak, California Weather observations

Data are for observation ending at time listed.
 Day   Time    Ave.   Ave.  Ave.  Vector   Max.   Stn.    Total    Solar   Ave.  
  of    of     Air    Rel.  Wind   Wind    Wind   Baro.  Precip.   Rad.    Soil  
Year   Day     Temp.  Hum.  Speed  Dir.    Gust   Pres.                    Temp. 
2016   (PST)    F      %     mph   deg.    mph     mb.     in.     W/m2     F   
------------------------------------------------------------------------------
 344   15:50   56.3    97    1.3    95      2.6   936.0    0.00     160    56.9
 344   16:00   55.5    96    1.8   106      2.5   935.7    0.00      98    57.0
 344   16:10   55.1    97    0.3   108      1.5   935.8    0.00      42    57.1
 344   16:20   55.0    97    0.8   224      1.6   935.9    0.00      37    57.1
 344   16:30   54.7    97    2.9    86      4.3   935.5    0.00      46    57.2
 344   16:40   54.7    97    1.4    85      2.3   935.4    0.00      34    57.2
 344   16:50   54.3    97    0.3   312      2.0   935.5    0.00      13    57.2
 344   17:00   54.3    97    1.7   267      2.6   935.6    0.00       4    57.2
 344   17:10   54.2    97    1.7   262      2.5   935.7    0.00       1    57.2
 344   17:20   53.8    97    1.7    78      4.1   935.6    0.00       0    57.2
 344   17:30   53.5    97    2.1   104      2.9   935.6    0.00       0    57.2
 344   17:40   53.4    97    3.1   105      4.6   935.5    0.00       0    57.1
 344   17:50   53.5    97    4.4   113      5.0   935.5    0.00       0    57.1
 344   18:00   53.8    97    3.2   140      4.2   935.6    0.00       0    57.1
 344   18:10   54.0    97    2.9   173      4.3   935.7    0.00       0    57.0
 344   18:20   53.4    97    2.7   287      4.3   935.8    0.00       0    56.9
 344   18:30   53.1    97    2.7   310      3.9   935.9    0.00       0    56.8
 344   18:40   53.1    97    1.6    86      3.2   935.9    0.01       0    56.8
 344   18:50   53.0    97    2.1    72      3.9   935.8    0.00       0    56.7
 344   19:00   52.9    97    4.1    98      4.7   935.6    0.00       0    56.6
 344   19:10   53.0    98    3.0   136      3.9   935.7    0.00       0    56.6
 344   19:20   53.0    98    3.2   132      4.1   935.7    0.00       0    56.5
 344   19:30   52.7    98    1.6   142      2.3   935.8    0.00       0    56.4
 344   19:40   52.9    98    2.0    72      3.7   935.9    0.00       0    56.4
 344   19:50   53.0    98    3.6    74      4.7   935.8    0.00       0    56.3
 344   20:00   53.3    98    4.2   123      5.6   935.7    0.00       0    56.3
 344   20:10   53.6    98    4.1   145      5.4   935.7    0.00       0    56.2
 344   20:20   53.8    98    3.4   150      6.0   935.7    0.00       0    56.2
 344   20:30   53.9    97    4.5   148      6.6   935.7    0.00       0    56.1
 344   20:40   53.9    97    4.5   136      6.4   935.7    0.00       0    56.1
 344   20:50   53.8    97    4.1   138      5.6   935.9    0.00       0    56.0
 344   21:00   53.8    97    4.2   141      5.2   935.9    0.00       0    56.0
 344   21:10   53.7    97    4.2   152      5.7   936.0    0.00       0    55.9
 344   21:20   53.7    97    3.3   182      5.9   936.1    0.00       0    55.9
 344   21:30   53.4    97    4.9   130      7.1   936.2    0.01       0    55.9
 344   21:40   53.3    97    6.0   118      8.1   936.2    0.00       0    55.8
 344   21:50   53.4    97    5.9   116      7.8   936.2    0.00       0    55.7
 344   22:00   53.5    98    5.8   113      7.5   936.2    0.00       0    55.7
 344   22:10   53.6    98    6.7   100      8.6   936.0    0.00       0    55.7
 344   22:20   53.8    98    4.6   122      6.5   936.1    0.00       0    55.7
 344   22:30   54.0    98    3.7   192      6.4   936.3    0.00       0    55.6
 344   22:40   53.9    98    3.2   198      5.5   936.4    0.00       0    55.6
 344   22:50   53.8    98    3.3   159      5.3   936.4    0.02       0    55.6
 344   23:00   53.7    98    4.6   132      6.6   936.3    0.00       0    55.5
 344   23:10   53.8    98    5.1   124      7.1   936.2    0.01       0    55.5
 344   23:20   53.9    98    4.7   119      6.0   936.1    0.00       0    55.5
 344   23:30   53.9    98    4.3   119      5.8   936.1    0.00       0    55.4
 344   23:40   54.0    98    3.2   131      4.4   936.2    0.01       0    55.4
 344   23:50   54.0    98    3.2   139      3.9   936.1    0.00       0    55.4
 345    0:00   54.0    98    3.1   148      3.8   936.1    0.01       0    55.4
 345    0:10   54.0    98    4.0   138      4.7   936.0    0.01       0    55.4
 345    0:20   54.0    98    4.0   134      4.7   935.9    0.00       0    55.4
 345    0:30   54.1    98    3.4   143      4.2   935.9    0.00       0    55.3
 345    0:40   54.1    98    3.5   130      4.7   935.8    0.01       0    55.3
 345    0:50   54.2    98    4.1   131      5.5   935.8    0.01       0    55.3
 345    1:00   54.2    98    4.0   138      5.8   935.9    0.00       0    55.3
 345    1:10   54.2    98    4.2   136      5.8   935.8    0.01       0    55.3
 345    1:20   54.2    98    4.6   130      5.8   935.7    0.00       0    55.3
 345    1:30   54.2    98    1.8   184      4.9   935.8    0.00       0    55.3
 345    1:40   54.1    98    2.2   172      3.9   935.9    0.02       0    55.3
 345    1:50   54.0    98    3.4   217      5.4   936.0    0.01       0    55.2
 345    2:00   54.0    98    3.2   216      5.9   936.0    0.02       0    55.2
 345    2:10   54.0    98    3.7   212      6.2   935.9    0.02       0    55.2
 345    2:20   53.9    98    3.2   185      5.3   935.9    0.01       0    55.2
 345    2:30   53.8    98    2.5   203      4.6   935.8    0.01       0    55.2
 345    2:40   53.7    98    2.4   211      3.7   935.8    0.01       0    55.2
 345    2:50   53.6    98    2.8   175      3.6   935.7    0.01       0    55.1
 345    3:00   53.6    98    3.2   185      4.5   935.6    0.01       0    55.1
 345    3:10   53.6    98    2.8   206      5.0   935.5    0.01       0    55.1
 345    3:20   53.6    98    2.5   208      3.8   935.4    0.01       0    55.1
 345    3:30   53.6    98    2.6   216      4.6   935.4    0.01       0    55.1
 345    3:40   53.6    98    1.2   183      2.7   935.3    0.01       0    55.1
 345    3:50   53.5    98    3.9   246      5.8   935.4    0.01       0    55.0
 345    4:00   53.4    98    3.4   227      6.0   935.3    0.02       0    55.0
 345    4:10   53.4    98    0.7   205      2.9   935.2    0.01       0    55.0
 345    4:20   53.4    98    2.9   253      5.3   935.2    0.01       0    55.0
 345    4:30   53.3    98    3.5   242      5.0   935.3    0.01       0    55.0
 345    4:40   53.3    98    3.3   251      5.8   935.2    0.01       0    55.0
 345    4:50   53.2    98    1.6   250      3.7   935.1    0.01       0    55.0
 345    5:00   53.2    98    2.6   235      4.1   935.1    0.00       0    55.0
 345    5:10   53.2    98    4.8   289      6.9   935.1    0.00       0    54.9
 345    5:20   53.2    98    3.3   268      5.1   935.2    0.01       0    54.9
 345    5:30   53.1    98    1.5   260      2.9   935.2    0.01       0    54.9
 345    5:40   53.1    98    2.5   232      4.7   935.1    0.01       0    54.9
 345    5:50   53.2    98    4.2   274      8.0   935.0    0.00       0    54.9
 345    6:00   53.2    98    4.7   268      7.7   935.1    0.00       0    54.9
 345    6:10   53.2    98    3.2   278      5.4   935.2    0.01       0    54.8
 345    6:20   53.2    98    3.1   259      4.5   935.3    0.01       0    54.8
 345    6:30   53.0    98    2.6   243      3.9   935.3    0.01       0    54.8
 345    6:40   53.0    98    3.6   248      5.3   935.3    0.01       0    54.8
 345    6:50   52.9    98    5.1   256      6.5   935.3    0.00       0    54.8
 345    7:00   52.8    98    4.2   266      6.7   935.3    0.01       0    54.8
 345    7:10   52.8    98    3.7   279      5.6   935.4    0.00       0    54.8
 345    7:20   52.7    98    1.8   302      4.0   935.3    0.01       1    54.8
 345    7:30   52.7    98    2.0     4      4.2   935.2    0.00       5    54.8
 345    7:40   52.9    98    1.3    14      2.9   935.1    0.00      12    54.7
 345    7:50   52.9    98    1.4    22      2.9   935.1    0.00      33    54.7
 345    8:00   53.1    98    2.4   266      3.9   935.2    0.00      28    54.7
 345    8:10   53.0    98    1.5   258      2.8   935.2    0.00      35    54.7
 345    8:20   53.0    98    3.8   255      5.3   935.3    0.01      52    54.7
 345    8:30   52.9    98    4.7   262      6.2   935.3    0.00      42    54.7
 345    8:40   53.1    98    4.0   266      5.8   935.5    0.01      69    54.7
 345    8:50   53.0    98    3.8   263      5.3   935.6    0.00      77    54.7
 345    9:00   53.1    98    3.4   256      4.7   935.7    0.00     108    54.7
 345    9:10   53.3    98    3.7   268      6.2   935.9    0.01      97    54.7
 345    9:20   53.7    98    3.1   291      5.3   935.9    0.00     187    54.8
 345    9:30   54.1    98    3.8   298      7.4   935.8    0.00     246    54.8
 345    9:40   54.2    98    4.6   263      6.8   935.7    0.00     312    54.9
 345    9:50   54.3    98    4.1   256      7.2   935.8    0.00     134    54.9
 345   10:00   54.2    98    5.1   248      6.7   935.9    0.00     230    55.0
 345   10:10   54.0    98    3.2   236      4.7   935.8    0.00     171    55.1
 345   10:20   54.8    98    2.9   219      6.1   935.7    0.00     239    55.2
 345   10:30   54.1    98    4.9   217      8.3   935.8    0.00     174    55.3
 345   10:40   53.5    98    6.6   224      9.5   935.9    0.00     214    55.4
 345   10:50   53.7    98    4.7   236      8.0   935.9    0.02     187    55.6
 345   11:00   53.6    98    5.7   254      8.6   935.9    0.01     150    55.8
 345   11:10   53.7    98    3.5   258      5.9   935.6    0.01     278    55.9
 345   11:20   54.2    98    4.4   230      6.5   935.5    0.00     211    56.0
 345   11:30   54.1    98    4.9   249      7.2   935.4    0.00     168    56.0
 345   11:40   53.7    98    6.3   243      8.8   935.3    0.01     193    56.2
 345   11:50   53.5    98    4.5   238      6.9   935.2    0.00     181    56.4
 345   12:00   53.7    98    3.6   246      6.7   934.9    0.01     190    56.5
 345   12:10   53.2    98    4.7   253      6.8   934.6    0.01     171    56.6
 345   12:20   53.2    98    5.4   257      6.9   934.6    0.00     165    56.7
 345   12:30   53.0    98    4.6   261      6.5   934.5    0.01     169    56.8
 345   12:40   53.5    98    3.2   268      5.0   934.3    0.01     269    56.9
 345   12:50   53.4    98    1.6   264      3.1   934.0    0.01     275    56.9
 345   13:00   53.8    98    3.6   264      5.3   933.8    0.00     234    56.9
 345   13:10   53.7    98    4.8   260      7.2   933.8    0.01     186    57.0
 345   13:20   53.5    98    4.7   268      7.1   933.9    0.01     138    57.1
 345   13:30   53.7    98    4.6   265      7.1   933.8    0.01     180    57.3
 345   13:40   53.6    98    4.1   266      7.4   933.7    0.01     188    57.3
 345   13:50   53.3    98    4.1   266      7.1   933.6    0.00     104    57.4
 345   14:00   53.2    98    3.7   274      6.1   933.6    0.01     148    57.4
 345   14:10   53.2    98    3.4   277      5.0   933.6    0.01     193    57.5
 345   14:20   53.2    98    1.8   280      3.4   933.5    0.01     185    57.5
 345   14:30   53.0    98    2.3   281      4.0   933.4    0.00     204    57.6
 345   14:40   53.1    98    2.4   260      4.3   933.3    0.01     134    57.6
 345   14:50   52.8    98    1.4   259      3.9   933.2    0.00     146    57.7
 345   15:00   53.1    98    2.7   259      4.5   933.2    0.01      93    57.7
 345   15:10   53.1    98    2.1   267      3.2   933.1    0.00     111    57.7
 345   15:20   53.1    98    0.8   287      2.3   933.3    0.00     122    57.8
 345   15:30   53.1    98    1.7   300      4.1   933.4    0.00      44    57.8
 345   15:40   53.0    98    1.5   308      3.4   933.3    0.01      34    57.8

Return to Highlands Peak graphs page.


Western Regional Climate Center,wrcc@dri.edu